sensor_id;sensor_type;location;lat;lon;timestamp;P1;durP1;ratioP1;P2;durP2;ratioP2
2011;SDS011;1009;51.436;6.972;2024-02-28T00:00:48;34.87;;;19.20;;
2011;SDS011;1009;51.436;6.972;2024-02-28T00:03:16;34.90;;;18.97;;
2011;SDS011;1009;51.436;6.972;2024-02-28T00:05:43;36.80;;;19.40;;
2011;SDS011;1009;51.436;6.972;2024-02-28T00:08:11;34.77;;;19.43;;
2011;SDS011;1009;51.436;6.972;2024-02-28T00:10:37;37.20;;;18.97;;
2011;SDS011;1009;51.436;6.972;2024-02-28T00:13:04;31.43;;;19.80;;
2011;SDS011;1009;51.436;6.972;2024-02-28T00:15:31;30.77;;;18.43;;
2011;SDS011;1009;51.436;6.972;2024-02-28T00:17:59;31.53;;;18.40;;
2011;SDS011;1009;51.436;6.972;2024-02-28T00:20:26;39.40;;;21.77;;
2011;SDS011;1009;51.436;6.972;2024-02-28T00:22:54;35.20;;;20.57;;
2011;SDS011;1009;51.436;6.972;2024-02-28T00:25:21;32.50;;;19.57;;
2011;SDS011;1009;51.436;6.972;2024-02-28T00:27:48;37.63;;;20.43;;
2011;SDS011;1009;51.436;6.972;2024-02-28T00:30:15;38.10;;;19.10;;
2011;SDS011;1009;51.436;6.972;2024-02-28T00:32:41;31.77;;;18.87;;
2011;SDS011;1009;51.436;6.972;2024-02-28T00:35:09;38.80;;;20.70;;
2011;SDS011;1009;51.436;6.972;2024-02-28T00:37:36;33.97;;;18.83;;
2011;SDS011;1009;51.436;6.972;2024-02-28T00:40:03;31.93;;;19.07;;
2011;SDS011;1009;51.436;6.972;2024-02-28T00:42:30;34.57;;;18.93;;
2011;SDS011;1009;51.436;6.972;2024-02-28T00:44:57;34.07;;;19.33;;
2011;SDS011;1009;51.436;6.972;2024-02-28T00:47:27;37.60;;;19.80;;
2011;SDS011;1009;51.436;6.972;2024-02-28T00:49:55;36.83;;;18.37;;
2011;SDS011;1009;51.436;6.972;2024-02-28T00:52:23;38.17;;;21.03;;
2011;SDS011;1009;51.436;6.972;2024-02-28T00:54:50;34.23;;;20.87;;
2011;SDS011;1009;51.436;6.972;2024-02-28T00:57:18;39.90;;;21.77;;
2011;SDS011;1009;51.436;6.972;2024-02-28T00:59:45;33.37;;;19.60;;
2011;SDS011;1009;51.436;6.972;2024-02-28T01:02:11;42.60;;;20.43;;
2011;SDS011;1009;51.436;6.972;2024-02-28T01:04:39;40.93;;;20.97;;
2011;SDS011;1009;51.436;6.972;2024-02-28T01:07:06;43.97;;;21.17;;
2011;SDS011;1009;51.436;6.972;2024-02-28T01:09:34;38.93;;;20.50;;
2011;SDS011;1009;51.436;6.972;2024-02-28T01:12:00;43.03;;;23.33;;
2011;SDS011;1009;51.436;6.972;2024-02-28T01:14:27;41.87;;;22.63;;
2011;SDS011;1009;51.436;6.972;2024-02-28T01:16:54;45.27;;;21.90;;
2011;SDS011;1009;51.436;6.972;2024-02-28T01:19:19;35.67;;;19.77;;
2011;SDS011;1009;51.436;6.972;2024-02-28T01:21:46;39.03;;;21.00;;
2011;SDS011;1009;51.436;6.972;2024-02-28T01:24:13;41.30;;;21.10;;
2011;SDS011;1009;51.436;6.972;2024-02-28T01:26:41;44.77;;;23.20;;
2011;SDS011;1009;51.436;6.972;2024-02-28T01:29:08;45.77;;;21.87;;
2011;SDS011;1009;51.436;6.972;2024-02-28T01:31:35;43.37;;;20.07;;
2011;SDS011;1009;51.436;6.972;2024-02-28T01:34:01;56.20;;;25.60;;
2011;SDS011;1009;51.436;6.972;2024-02-28T01:36:28;48.33;;;22.83;;
2011;SDS011;1009;51.436;6.972;2024-02-28T01:38:55;61.23;;;23.47;;
2011;SDS011;1009;51.436;6.972;2024-02-28T01:41:22;50.30;;;23.20;;
2011;SDS011;1009;51.436;6.972;2024-02-28T01:43:50;49.70;;;22.63;;
2011;SDS011;1009;51.436;6.972;2024-02-28T01:46:22;43.70;;;22.70;;
2011;SDS011;1009;51.436;6.972;2024-02-28T01:48:50;72.37;;;28.43;;
2011;SDS011;1009;51.436;6.972;2024-02-28T01:51:17;81.13;;;32.80;;
2011;SDS011;1009;51.436;6.972;2024-02-28T01:53:44;70.80;;;32.13;;
2011;SDS011;1009;51.436;6.972;2024-02-28T01:56:11;70.87;;;31.13;;
2011;SDS011;1009;51.436;6.972;2024-02-28T01:58:41;66.37;;;32.70;;
2011;SDS011;1009;51.436;6.972;2024-02-28T02:01:10;79.07;;;30.20;;
2011;SDS011;1009;51.436;6.972;2024-02-28T02:03:38;49.70;;;24.17;;
2011;SDS011;1009;51.436;6.972;2024-02-28T02:06:05;68.07;;;25.57;;
2011;SDS011;1009;51.436;6.972;2024-02-28T02:08:32;74.00;;;33.27;;
2011;SDS011;1009;51.436;6.972;2024-02-28T02:10:59;59.80;;;30.23;;
2011;SDS011;1009;51.436;6.972;2024-02-28T02:13:26;61.63;;;30.03;;
2011;SDS011;1009;51.436;6.972;2024-02-28T02:15:53;72.63;;;31.20;;
2011;SDS011;1009;51.436;6.972;2024-02-28T02:18:21;73.47;;;31.63;;
2011;SDS011;1009;51.436;6.972;2024-02-28T02:20:49;68.67;;;33.20;;
2011;SDS011;1009;51.436;6.972;2024-02-28T02:23:20;79.63;;;33.23;;
2011;SDS011;1009;51.436;6.972;2024-02-28T02:25:47;85.73;;;34.20;;
2011;SDS011;1009;51.436;6.972;2024-02-28T02:28:14;77.27;;;35.37;;
2011;SDS011;1009;51.436;6.972;2024-02-28T02:30:41;83.93;;;36.70;;
2011;SDS011;1009;51.436;6.972;2024-02-28T02:33:08;83.90;;;36.20;;
2011;SDS011;1009;51.436;6.972;2024-02-28T02:35:35;89.93;;;36.67;;
2011;SDS011;1009;51.436;6.972;2024-02-28T02:38:01;61.40;;;29.27;;
2011;SDS011;1009;51.436;6.972;2024-02-28T02:40:29;82.43;;;34.10;;
2011;SDS011;1009;51.436;6.972;2024-02-28T02:42:56;90.60;;;39.60;;
2011;SDS011;1009;51.436;6.972;2024-02-28T02:45:23;67.87;;;31.03;;
2011;SDS011;1009;51.436;6.972;2024-02-28T02:47:50;87.63;;;35.30;;
2011;SDS011;1009;51.436;6.972;2024-02-28T02:50:16;68.83;;;30.93;;
2011;SDS011;1009;51.436;6.972;2024-02-28T02:52:43;108.23;;;44.77;;
2011;SDS011;1009;51.436;6.972;2024-02-28T02:55:10;131.50;;;49.30;;
2011;SDS011;1009;51.436;6.972;2024-02-28T02:57:39;124.37;;;52.90;;
2011;SDS011;1009;51.436;6.972;2024-02-28T03:00:07;132.03;;;52.30;;
2011;SDS011;1009;51.436;6.972;2024-02-28T03:02:35;147.13;;;53.87;;
2011;SDS011;1009;51.436;6.972;2024-02-28T03:05:03;126.67;;;47.50;;
2011;SDS011;1009;51.436;6.972;2024-02-28T03:07:31;138.13;;;50.13;;
2011;SDS011;1009;51.436;6.972;2024-02-28T03:09:58;117.33;;;48.63;;
2011;SDS011;1009;51.436;6.972;2024-02-28T03:12:25;140.30;;;47.63;;
2011;SDS011;1009;51.436;6.972;2024-02-28T03:14:53;121.00;;;44.40;;
2011;SDS011;1009;51.436;6.972;2024-02-28T03:17:19;107.37;;;45.20;;
2011;SDS011;1009;51.436;6.972;2024-02-28T03:19:46;130.80;;;51.40;;
2011;SDS011;1009;51.436;6.972;2024-02-28T03:22:13;109.17;;;41.77;;
2011;SDS011;1009;51.436;6.972;2024-02-28T03:24:40;126.60;;;45.00;;
2011;SDS011;1009;51.436;6.972;2024-02-28T03:27:07;114.07;;;45.40;;
2011;SDS011;1009;51.436;6.972;2024-02-28T03:29:34;107.70;;;40.77;;
2011;SDS011;1009;51.436;6.972;2024-02-28T03:32:02;113.13;;;43.10;;
2011;SDS011;1009;51.436;6.972;2024-02-28T03:34:29;113.00;;;43.40;;
2011;SDS011;1009;51.436;6.972;2024-02-28T03:36:55;109.53;;;44.20;;
2011;SDS011;1009;51.436;6.972;2024-02-28T03:39:22;131.33;;;47.83;;
2011;SDS011;1009;51.436;6.972;2024-02-28T03:41:49;122.67;;;48.07;;
2011;SDS011;1009;51.436;6.972;2024-02-28T03:44:16;115.57;;;44.10;;
2011;SDS011;1009;51.436;6.972;2024-02-28T03:46:42;100.40;;;41.23;;
2011;SDS011;1009;51.436;6.972;2024-02-28T03:49:10;112.63;;;45.03;;
2011;SDS011;1009;51.436;6.972;2024-02-28T03:51:39;122.30;;;48.33;;
2011;SDS011;1009;51.436;6.972;2024-02-28T03:54:06;114.07;;;46.27;;
2011;SDS011;1009;51.436;6.972;2024-02-28T03:56:34;122.67;;;44.43;;
2011;SDS011;1009;51.436;6.972;2024-02-28T03:59:01;111.13;;;42.33;;
2011;SDS011;1009;51.436;6.972;2024-02-28T04:01:28;129.57;;;46.50;;
2011;SDS011;1009;51.436;6.972;2024-02-28T04:03:55;117.83;;;42.60;;
2011;SDS011;1009;51.436;6.972;2024-02-28T04:06:24;113.53;;;43.80;;
2011;SDS011;1009;51.436;6.972;2024-02-28T04:08:50;111.77;;;41.53;;
2011;SDS011;1009;51.436;6.972;2024-02-28T04:11:17;117.63;;;46.63;;
2011;SDS011;1009;51.436;6.972;2024-02-28T04:13:44;118.70;;;45.63;;
2011;SDS011;1009;51.436;6.972;2024-02-28T04:16:11;141.23;;;45.30;;
2011;SDS011;1009;51.436;6.972;2024-02-28T04:18:38;114.50;;;45.67;;
2011;SDS011;1009;51.436;6.972;2024-02-28T04:21:05;117.33;;;44.37;;
2011;SDS011;1009;51.436;6.972;2024-02-28T04:23:33;134.10;;;43.47;;
2011;SDS011;1009;51.436;6.972;2024-02-28T04:26:00;121.70;;;45.60;;
2011;SDS011;1009;51.436;6.972;2024-02-28T04:28:28;147.13;;;47.40;;
2011;SDS011;1009;51.436;6.972;2024-02-28T04:30:55;123.43;;;47.10;;
2011;SDS011;1009;51.436;6.972;2024-02-28T04:33:22;130.33;;;44.83;;
2011;SDS011;1009;51.436;6.972;2024-02-28T04:35:48;139.47;;;48.70;;
2011;SDS011;1009;51.436;6.972;2024-02-28T04:38:15;138.93;;;49.80;;
2011;SDS011;1009;51.436;6.972;2024-02-28T04:40:43;121.90;;;48.30;;
2011;SDS011;1009;51.436;6.972;2024-02-28T04:43:10;139.00;;;46.23;;
2011;SDS011;1009;51.436;6.972;2024-02-28T04:45:37;136.60;;;49.13;;
2011;SDS011;1009;51.436;6.972;2024-02-28T04:48:04;189.43;;;50.53;;
2011;SDS011;1009;51.436;6.972;2024-02-28T04:50:31;140.03;;;50.33;;
2011;SDS011;1009;51.436;6.972;2024-02-28T04:52:58;132.33;;;51.17;;
2011;SDS011;1009;51.436;6.972;2024-02-28T04:55:25;157.13;;;52.13;;
2011;SDS011;1009;51.436;6.972;2024-02-28T04:57:53;140.13;;;50.97;;
2011;SDS011;1009;51.436;6.972;2024-02-28T05:00:19;163.40;;;52.70;;
2011;SDS011;1009;51.436;6.972;2024-02-28T05:02:46;159.63;;;54.27;;
2011;SDS011;1009;51.436;6.972;2024-02-28T05:05:13;169.07;;;55.63;;
2011;SDS011;1009;51.436;6.972;2024-02-28T05:07:40;160.03;;;56.30;;
2011;SDS011;1009;51.436;6.972;2024-02-28T05:10:06;149.70;;;52.03;;
2011;SDS011;1009;51.436;6.972;2024-02-28T05:12:33;159.00;;;56.17;;
2011;SDS011;1009;51.436;6.972;2024-02-28T05:15:02;162.40;;;53.30;;
2011;SDS011;1009;51.436;6.972;2024-02-28T05:17:29;141.77;;;51.63;;
2011;SDS011;1009;51.436;6.972;2024-02-28T05:19:55;146.50;;;53.50;;
2011;SDS011;1009;51.436;6.972;2024-02-28T05:22:23;151.17;;;50.50;;
2011;SDS011;1009;51.436;6.972;2024-02-28T05:24:49;150.50;;;53.77;;
2011;SDS011;1009;51.436;6.972;2024-02-28T05:27:17;146.70;;;52.70;;
2011;SDS011;1009;51.436;6.972;2024-02-28T05:29:43;162.90;;;54.23;;
2011;SDS011;1009;51.436;6.972;2024-02-28T05:32:11;178.07;;;54.10;;
2011;SDS011;1009;51.436;6.972;2024-02-28T05:34:38;167.40;;;55.37;;
2011;SDS011;1009;51.436;6.972;2024-02-28T05:37:05;176.97;;;55.03;;
2011;SDS011;1009;51.436;6.972;2024-02-28T05:39:32;151.73;;;51.13;;
2011;SDS011;1009;51.436;6.972;2024-02-28T05:41:59;158.90;;;50.63;;
2011;SDS011;1009;51.436;6.972;2024-02-28T05:44:26;158.67;;;51.70;;
2011;SDS011;1009;51.436;6.972;2024-02-28T05:46:52;160.30;;;52.97;;
2011;SDS011;1009;51.436;6.972;2024-02-28T05:49:21;163.13;;;52.40;;
2011;SDS011;1009;51.436;6.972;2024-02-28T05:51:48;159.57;;;49.30;;
2011;SDS011;1009;51.436;6.972;2024-02-28T05:54:14;148.33;;;49.93;;
2011;SDS011;1009;51.436;6.972;2024-02-28T05:56:41;163.63;;;54.73;;
2011;SDS011;1009;51.436;6.972;2024-02-28T05:59:08;152.60;;;52.10;;
2011;SDS011;1009;51.436;6.972;2024-02-28T06:01:34;166.43;;;49.87;;
2011;SDS011;1009;51.436;6.972;2024-02-28T06:04:02;158.17;;;51.37;;
2011;SDS011;1009;51.436;6.972;2024-02-28T06:06:30;151.33;;;49.27;;
2011;SDS011;1009;51.436;6.972;2024-02-28T06:08:57;145.30;;;49.30;;
2011;SDS011;1009;51.436;6.972;2024-02-28T06:11:24;164.73;;;56.20;;
2011;SDS011;1009;51.436;6.972;2024-02-28T06:13:51;145.37;;;51.03;;
2011;SDS011;1009;51.436;6.972;2024-02-28T06:16:17;166.63;;;51.20;;
2011;SDS011;1009;51.436;6.972;2024-02-28T06:18:44;162.50;;;50.97;;
2011;SDS011;1009;51.436;6.972;2024-02-28T06:21:12;158.40;;;51.67;;
2011;SDS011;1009;51.436;6.972;2024-02-28T06:23:40;154.40;;;51.30;;
2011;SDS011;1009;51.436;6.972;2024-02-28T06:26:07;137.10;;;49.33;;
2011;SDS011;1009;51.436;6.972;2024-02-28T06:28:40;161.77;;;50.67;;
2011;SDS011;1009;51.436;6.972;2024-02-28T06:31:11;140.53;;;49.93;;
2011;SDS011;1009;51.436;6.972;2024-02-28T06:33:39;160.93;;;53.40;;
2011;SDS011;1009;51.436;6.972;2024-02-28T06:36:06;159.90;;;52.10;;
2011;SDS011;1009;51.436;6.972;2024-02-28T06:38:33;163.63;;;50.70;;
2011;SDS011;1009;51.436;6.972;2024-02-28T06:41:02;153.97;;;49.43;;
2011;SDS011;1009;51.436;6.972;2024-02-28T06:43:28;152.77;;;49.13;;
2011;SDS011;1009;51.436;6.972;2024-02-28T06:45:55;150.47;;;49.53;;
2011;SDS011;1009;51.436;6.972;2024-02-28T06:48:22;141.60;;;47.53;;
2011;SDS011;1009;51.436;6.972;2024-02-28T06:50:49;147.53;;;50.57;;
2011;SDS011;1009;51.436;6.972;2024-02-28T06:53:16;146.83;;;49.43;;
2011;SDS011;1009;51.436;6.972;2024-02-28T06:55:43;147.90;;;48.20;;
2011;SDS011;1009;51.436;6.972;2024-02-28T06:58:11;139.67;;;48.17;;
2011;SDS011;1009;51.436;6.972;2024-02-28T07:00:38;156.93;;;51.67;;
2011;SDS011;1009;51.436;6.972;2024-02-28T07:03:05;162.50;;;49.30;;
2011;SDS011;1009;51.436;6.972;2024-02-28T07:05:32;139.57;;;48.50;;
2011;SDS011;1009;51.436;6.972;2024-02-28T07:07:59;154.20;;;52.53;;
2011;SDS011;1009;51.436;6.972;2024-02-28T07:10:26;158.17;;;50.90;;
2011;SDS011;1009;51.436;6.972;2024-02-28T07:12:52;147.10;;;48.17;;
2011;SDS011;1009;51.436;6.972;2024-02-28T07:15:20;175.83;;;53.07;;
2011;SDS011;1009;51.436;6.972;2024-02-28T07:17:47;162.67;;;49.30;;
2011;SDS011;1009;51.436;6.972;2024-02-28T07:20:14;157.67;;;50.57;;
2011;SDS011;1009;51.436;6.972;2024-02-28T07:22:42;149.43;;;49.30;;
2011;SDS011;1009;51.436;6.972;2024-02-28T07:25:09;153.33;;;49.63;;
2011;SDS011;1009;51.436;6.972;2024-02-28T07:27:36;155.57;;;50.10;;
2011;SDS011;1009;51.436;6.972;2024-02-28T07:30:03;169.07;;;51.30;;
2011;SDS011;1009;51.436;6.972;2024-02-28T07:32:33;142.43;;;47.37;;
2011;SDS011;1009;51.436;6.972;2024-02-28T07:35:01;150.07;;;50.67;;
2011;SDS011;1009;51.436;6.972;2024-02-28T07:37:29;145.47;;;49.80;;
2011;SDS011;1009;51.436;6.972;2024-02-28T07:39:55;141.97;;;49.23;;
2011;SDS011;1009;51.436;6.972;2024-02-28T07:42:22;131.83;;;49.30;;
2011;SDS011;1009;51.436;6.972;2024-02-28T07:44:49;157.10;;;49.93;;
2011;SDS011;1009;51.436;6.972;2024-02-28T07:47:20;135.33;;;48.50;;
2011;SDS011;1009;51.436;6.972;2024-02-28T07:49:56;137.43;;;47.40;;
2011;SDS011;1009;51.436;6.972;2024-02-28T07:52:23;121.50;;;44.40;;
2011;SDS011;1009;51.436;6.972;2024-02-28T07:54:49;140.83;;;46.17;;
2011;SDS011;1009;51.436;6.972;2024-02-28T07:57:17;114.53;;;41.70;;
2011;SDS011;1009;51.436;6.972;2024-02-28T07:59:43;119.93;;;42.13;;
2011;SDS011;1009;51.436;6.972;2024-02-28T08:02:10;117.50;;;42.30;;
2011;SDS011;1009;51.436;6.972;2024-02-28T08:04:37;126.83;;;41.70;;
2011;SDS011;1009;51.436;6.972;2024-02-28T08:07:06;119.47;;;43.10;;
2011;SDS011;1009;51.436;6.972;2024-02-28T08:09:32;117.80;;;44.50;;
2011;SDS011;1009;51.436;6.972;2024-02-28T08:12:01;113.50;;;44.47;;
2011;SDS011;1009;51.436;6.972;2024-02-28T08:14:27;105.07;;;42.60;;
2011;SDS011;1009;51.436;6.972;2024-02-28T08:16:54;96.37;;;38.60;;
2011;SDS011;1009;51.436;6.972;2024-02-28T08:19:21;117.03;;;40.27;;
2011;SDS011;1009;51.436;6.972;2024-02-28T08:21:48;112.27;;;41.87;;
2011;SDS011;1009;51.436;6.972;2024-02-28T08:24:16;107.43;;;41.10;;
2011;SDS011;1009;51.436;6.972;2024-02-28T08:26:42;88.00;;;38.87;;
2011;SDS011;1009;51.436;6.972;2024-02-28T08:29:09;93.63;;;38.23;;
2011;SDS011;1009;51.436;6.972;2024-02-28T08:31:39;97.80;;;39.40;;
2011;SDS011;1009;51.436;6.972;2024-02-28T08:34:07;96.60;;;38.20;;
2011;SDS011;1009;51.436;6.972;2024-02-28T08:36:34;96.27;;;38.57;;
2011;SDS011;1009;51.436;6.972;2024-02-28T08:39:01;82.80;;;36.40;;
2011;SDS011;1009;51.436;6.972;2024-02-28T08:41:30;91.07;;;38.23;;
2011;SDS011;1009;51.436;6.972;2024-02-28T08:43:58;80.40;;;33.27;;
2011;SDS011;1009;51.436;6.972;2024-02-28T08:46:24;81.63;;;34.10;;
2011;SDS011;1009;51.436;6.972;2024-02-28T08:48:51;88.43;;;37.03;;
2011;SDS011;1009;51.436;6.972;2024-02-28T08:51:20;74.40;;;32.70;;
2011;SDS011;1009;51.436;6.972;2024-02-28T08:53:47;82.03;;;33.93;;
2011;SDS011;1009;51.436;6.972;2024-02-28T08:56:14;81.53;;;33.73;;
2011;SDS011;1009;51.436;6.972;2024-02-28T08:58:42;83.07;;;36.10;;
2011;SDS011;1009;51.436;6.972;2024-02-28T09:01:12;93.53;;;35.27;;
2011;SDS011;1009;51.436;6.972;2024-02-28T09:03:40;90.67;;;35.87;;
2011;SDS011;1009;51.436;6.972;2024-02-28T09:06:07;87.07;;;34.93;;
2011;SDS011;1009;51.436;6.972;2024-02-28T09:08:33;90.50;;;34.53;;
2011;SDS011;1009;51.436;6.972;2024-02-28T09:11:00;84.47;;;34.17;;
2011;SDS011;1009;51.436;6.972;2024-02-28T09:13:27;84.03;;;33.07;;
2011;SDS011;1009;51.436;6.972;2024-02-28T09:15:56;81.67;;;32.40;;
2011;SDS011;1009;51.436;6.972;2024-02-28T09:18:23;93.07;;;36.57;;
2011;SDS011;1009;51.436;6.972;2024-02-28T09:20:50;86.37;;;34.00;;
2011;SDS011;1009;51.436;6.972;2024-02-28T09:23:16;80.10;;;32.13;;
2011;SDS011;1009;51.436;6.972;2024-02-28T09:25:43;79.43;;;32.47;;
2011;SDS011;1009;51.436;6.972;2024-02-28T09:28:10;82.33;;;33.83;;
2011;SDS011;1009;51.436;6.972;2024-02-28T09:30:38;92.27;;;37.33;;
2011;SDS011;1009;51.436;6.972;2024-02-28T09:33:07;80.83;;;35.70;;
2011;SDS011;1009;51.436;6.972;2024-02-28T09:35:34;77.47;;;32.87;;
2011;SDS011;1009;51.436;6.972;2024-02-28T09:38:01;79.33;;;34.97;;
2011;SDS011;1009;51.436;6.972;2024-02-28T09:40:28;83.47;;;31.83;;
2011;SDS011;1009;51.436;6.972;2024-02-28T09:42:57;90.70;;;36.30;;
2011;SDS011;1009;51.436;6.972;2024-02-28T09:45:27;88.63;;;38.10;;
2011;SDS011;1009;51.436;6.972;2024-02-28T09:47:55;83.90;;;34.83;;
2011;SDS011;1009;51.436;6.972;2024-02-28T09:50:23;84.83;;;35.17;;
2011;SDS011;1009;51.436;6.972;2024-02-28T09:52:52;92.23;;;36.60;;
2011;SDS011;1009;51.436;6.972;2024-02-28T09:55:19;89.93;;;33.83;;
2011;SDS011;1009;51.436;6.972;2024-02-28T09:57:46;83.90;;;35.50;;
2011;SDS011;1009;51.436;6.972;2024-02-28T10:00:15;80.70;;;34.17;;
2011;SDS011;1009;51.436;6.972;2024-02-28T10:02:44;79.80;;;32.43;;
2011;SDS011;1009;51.436;6.972;2024-02-28T10:05:13;93.10;;;36.57;;
2011;SDS011;1009;51.436;6.972;2024-02-28T10:07:42;89.70;;;38.10;;
2011;SDS011;1009;51.436;6.972;2024-02-28T10:10:08;80.37;;;34.77;;
2011;SDS011;1009;51.436;6.972;2024-02-28T10:12:36;79.57;;;32.97;;
2011;SDS011;1009;51.436;6.972;2024-02-28T10:15:06;76.13;;;31.60;;
2011;SDS011;1009;51.436;6.972;2024-02-28T10:17:34;67.47;;;33.57;;
2011;SDS011;1009;51.436;6.972;2024-02-28T10:20:01;76.90;;;34.07;;
2011;SDS011;1009;51.436;6.972;2024-02-28T10:22:33;57.47;;;26.90;;
2011;SDS011;1009;51.436;6.972;2024-02-28T10:25:01;63.53;;;28.50;;
2011;SDS011;1009;51.436;6.972;2024-02-28T10:27:31;57.33;;;28.07;;
2011;SDS011;1009;51.436;6.972;2024-02-28T10:29:58;68.47;;;28.17;;
2011;SDS011;1009;51.436;6.972;2024-02-28T10:32:25;60.17;;;26.70;;
2011;SDS011;1009;51.436;6.972;2024-02-28T10:34:51;58.77;;;29.50;;
2011;SDS011;1009;51.436;6.972;2024-02-28T10:37:20;53.70;;;28.40;;
2011;SDS011;1009;51.436;6.972;2024-02-28T10:39:48;52.63;;;26.30;;
2011;SDS011;1009;51.436;6.972;2024-02-28T10:42:19;55.13;;;28.43;;
2011;SDS011;1009;51.436;6.972;2024-02-28T10:44:49;49.00;;;24.23;;
2011;SDS011;1009;51.436;6.972;2024-02-28T10:47:17;48.20;;;24.87;;
2011;SDS011;1009;51.436;6.972;2024-02-28T10:49:44;53.60;;;27.57;;
2011;SDS011;1009;51.436;6.972;2024-02-28T10:52:11;54.33;;;27.00;;
2011;SDS011;1009;51.436;6.972;2024-02-28T10:54:40;59.70;;;29.53;;
2011;SDS011;1009;51.436;6.972;2024-02-28T10:57:08;56.73;;;28.17;;
2011;SDS011;1009;51.436;6.972;2024-02-28T10:59:39;58.00;;;28.87;;
2011;SDS011;1009;51.436;6.972;2024-02-28T11:02:09;51.20;;;27.53;;
2011;SDS011;1009;51.436;6.972;2024-02-28T11:04:35;45.50;;;23.73;;
2011;SDS011;1009;51.436;6.972;2024-02-28T11:07:03;42.83;;;23.53;;
2011;SDS011;1009;51.436;6.972;2024-02-28T11:09:30;49.07;;;25.47;;
2011;SDS011;1009;51.436;6.972;2024-02-28T11:11:57;40.53;;;23.90;;
2011;SDS011;1009;51.436;6.972;2024-02-28T11:14:24;43.40;;;23.60;;
2011;SDS011;1009;51.436;6.972;2024-02-28T11:17:02;48.30;;;25.47;;
2011;SDS011;1009;51.436;6.972;2024-02-28T11:19:30;48.97;;;28.60;;
2011;SDS011;1009;51.436;6.972;2024-02-28T11:21:58;44.00;;;25.20;;
2011;SDS011;1009;51.436;6.972;2024-02-28T11:24:28;48.40;;;25.73;;
2011;SDS011;1009;51.436;6.972;2024-02-28T11:26:57;42.30;;;22.73;;
2011;SDS011;1009;51.436;6.972;2024-02-28T11:29:24;44.07;;;24.97;;
2011;SDS011;1009;51.436;6.972;2024-02-28T11:31:51;41.00;;;22.57;;
2011;SDS011;1009;51.436;6.972;2024-02-28T11:34:19;44.87;;;23.73;;
2011;SDS011;1009;51.436;6.972;2024-02-28T11:36:47;43.60;;;22.10;;
2011;SDS011;1009;51.436;6.972;2024-02-28T11:39:15;44.43;;;23.83;;
2011;SDS011;1009;51.436;6.972;2024-02-28T11:41:42;46.20;;;24.90;;
2011;SDS011;1009;51.436;6.972;2024-02-28T11:44:11;45.77;;;24.53;;
2011;SDS011;1009;51.436;6.972;2024-02-28T11:46:44;46.87;;;26.27;;
2011;SDS011;1009;51.436;6.972;2024-02-28T11:49:16;44.10;;;24.60;;
2011;SDS011;1009;51.436;6.972;2024-02-28T11:51:45;40.50;;;23.17;;
2011;SDS011;1009;51.436;6.972;2024-02-28T11:54:12;41.27;;;22.73;;
2011;SDS011;1009;51.436;6.972;2024-02-28T11:56:39;41.40;;;22.70;;
2011;SDS011;1009;51.436;6.972;2024-02-28T11:59:06;41.53;;;21.17;;
2011;SDS011;1009;51.436;6.972;2024-02-28T12:01:34;48.70;;;23.90;;
2011;SDS011;1009;51.436;6.972;2024-02-28T12:04:02;39.23;;;21.70;;
2011;SDS011;1009;51.436;6.972;2024-02-28T12:06:30;39.07;;;20.87;;
2011;SDS011;1009;51.436;6.972;2024-02-28T12:08:59;41.40;;;19.00;;
2011;SDS011;1009;51.436;6.972;2024-02-28T12:11:26;39.90;;;19.43;;
2011;SDS011;1009;51.436;6.972;2024-02-28T12:13:54;36.93;;;16.87;;
2011;SDS011;1009;51.436;6.972;2024-02-28T12:16:21;40.27;;;19.07;;
2011;SDS011;1009;51.436;6.972;2024-02-28T12:18:49;32.87;;;18.53;;
2011;SDS011;1009;51.436;6.972;2024-02-28T12:21:17;38.03;;;19.70;;
2011;SDS011;1009;51.436;6.972;2024-02-28T12:23:44;35.63;;;18.10;;
2011;SDS011;1009;51.436;6.972;2024-02-28T12:26:12;40.80;;;19.63;;
2011;SDS011;1009;51.436;6.972;2024-02-28T12:28:39;34.53;;;18.07;;
2011;SDS011;1009;51.436;6.972;2024-02-28T12:31:06;32.40;;;15.60;;
2011;SDS011;1009;51.436;6.972;2024-02-28T12:33:35;38.53;;;19.50;;
2011;SDS011;1009;51.436;6.972;2024-02-28T12:36:01;40.60;;;20.00;;
2011;SDS011;1009;51.436;6.972;2024-02-28T12:38:29;42.57;;;19.33;;
2011;SDS011;1009;51.436;6.972;2024-02-28T12:40:56;33.87;;;16.70;;
2011;SDS011;1009;51.436;6.972;2024-02-28T12:43:24;38.00;;;18.73;;
2011;SDS011;1009;51.436;6.972;2024-02-28T12:45:51;39.07;;;18.60;;
2011;SDS011;1009;51.436;6.972;2024-02-28T12:48:18;34.50;;;16.80;;
2011;SDS011;1009;51.436;6.972;2024-02-28T12:50:45;38.57;;;17.80;;
2011;SDS011;1009;51.436;6.972;2024-02-28T12:53:11;36.90;;;17.77;;
2011;SDS011;1009;51.436;6.972;2024-02-28T12:55:39;30.50;;;16.33;;
2011;SDS011;1009;51.436;6.972;2024-02-28T12:58:06;30.80;;;14.23;;
2011;SDS011;1009;51.436;6.972;2024-02-28T13:00:35;36.30;;;16.77;;
2011;SDS011;1009;51.436;6.972;2024-02-28T13:03:02;30.53;;;16.27;;
2011;SDS011;1009;51.436;6.972;2024-02-28T13:05:29;35.80;;;16.87;;
2011;SDS011;1009;51.436;6.972;2024-02-28T13:07:56;36.07;;;15.90;;
2011;SDS011;1009;51.436;6.972;2024-02-28T13:10:23;40.13;;;18.90;;
2011;SDS011;1009;51.436;6.972;2024-02-28T13:12:50;33.37;;;16.73;;
2011;SDS011;1009;51.436;6.972;2024-02-28T13:15:17;34.80;;;15.77;;
2011;SDS011;1009;51.436;6.972;2024-02-28T13:17:45;33.30;;;16.53;;
2011;SDS011;1009;51.436;6.972;2024-02-28T13:20:14;35.17;;;16.67;;
2011;SDS011;1009;51.436;6.972;2024-02-28T13:22:41;30.27;;;14.13;;
2011;SDS011;1009;51.436;6.972;2024-02-28T13:25:08;32.40;;;15.70;;
2011;SDS011;1009;51.436;6.972;2024-02-28T13:27:35;28.50;;;14.53;;
2011;SDS011;1009;51.436;6.972;2024-02-28T13:30:02;29.10;;;14.57;;
2011;SDS011;1009;51.436;6.972;2024-02-28T13:32:30;32.40;;;15.07;;
2011;SDS011;1009;51.436;6.972;2024-02-28T13:34:58;28.70;;;14.30;;
2011;SDS011;1009;51.436;6.972;2024-02-28T13:37:25;35.23;;;14.33;;
2011;SDS011;1009;51.436;6.972;2024-02-28T13:39:52;31.80;;;15.40;;
2011;SDS011;1009;51.436;6.972;2024-02-28T13:42:18;33.73;;;16.20;;
2011;SDS011;1009;51.436;6.972;2024-02-28T13:44:45;33.30;;;16.07;;
2011;SDS011;1009;51.436;6.972;2024-02-28T13:47:12;32.23;;;17.23;;
2011;SDS011;1009;51.436;6.972;2024-02-28T13:49:39;33.00;;;14.90;;
2011;SDS011;1009;51.436;6.972;2024-02-28T13:52:07;25.87;;;16.10;;
2011;SDS011;1009;51.436;6.972;2024-02-28T13:54:34;29.10;;;14.83;;
2011;SDS011;1009;51.436;6.972;2024-02-28T13:57:01;31.50;;;14.50;;
2011;SDS011;1009;51.436;6.972;2024-02-28T13:59:29;34.67;;;16.80;;
2011;SDS011;1009;51.436;6.972;2024-02-28T14:01:56;28.33;;;14.00;;
2011;SDS011;1009;51.436;6.972;2024-02-28T14:04:24;32.23;;;13.80;;
2011;SDS011;1009;51.436;6.972;2024-02-28T14:06:51;25.50;;;13.57;;
2011;SDS011;1009;51.436;6.972;2024-02-28T14:09:19;28.67;;;14.53;;
2011;SDS011;1009;51.436;6.972;2024-02-28T14:11:46;35.90;;;16.00;;
2011;SDS011;1009;51.436;6.972;2024-02-28T14:14:12;25.57;;;14.33;;
2011;SDS011;1009;51.436;6.972;2024-02-28T14:16:40;28.20;;;14.17;;
2011;SDS011;1009;51.436;6.972;2024-02-28T14:19:08;25.53;;;13.60;;
2011;SDS011;1009;51.436;6.972;2024-02-28T14:21:34;25.57;;;12.10;;
2011;SDS011;1009;51.436;6.972;2024-02-28T14:24:01;25.67;;;12.90;;
2011;SDS011;1009;51.436;6.972;2024-02-28T14:26:29;25.17;;;12.63;;
2011;SDS011;1009;51.436;6.972;2024-02-28T14:28:56;28.50;;;14.13;;
2011;SDS011;1009;51.436;6.972;2024-02-28T14:31:23;34.90;;;13.80;;
2011;SDS011;1009;51.436;6.972;2024-02-28T14:33:50;31.93;;;15.77;;
2011;SDS011;1009;51.436;6.972;2024-02-28T14:36:16;27.50;;;13.63;;
2011;SDS011;1009;51.436;6.972;2024-02-28T14:38:45;30.57;;;14.03;;
2011;SDS011;1009;51.436;6.972;2024-02-28T14:41:12;24.77;;;12.13;;
2011;SDS011;1009;51.436;6.972;2024-02-28T14:43:40;26.77;;;13.27;;